createdAt,value
2023-03-19T00:00:29.128Z,23.33
2023-03-19T00:03:16.488Z,24.23
2023-03-19T00:05:51.760Z,23.55
2023-03-19T00:08:19.497Z,23.92
2023-03-19T00:10:46.615Z,24.95
2023-03-19T00:13:13.888Z,28.67
2023-03-19T00:15:41.603Z,26.73
2023-03-19T00:18:08.940Z,24.38
2023-03-19T00:20:36.429Z,23.83
2023-03-19T00:23:04.036Z,24.13
2023-03-19T00:25:31.866Z,24.23
2023-03-19T00:27:59.317Z,23.02
2023-03-19T00:30:27.132Z,23.10
2023-03-19T00:32:54.549Z,23.30
2023-03-19T00:35:22.008Z,22.55
2023-03-19T00:37:49.335Z,23.58
2023-03-19T00:40:16.536Z,23.73
2023-03-19T00:42:44.929Z,24.05
2023-03-19T00:45:13.009Z,24.23
2023-03-19T00:47:40.601Z,23.75
2023-03-19T00:50:09.067Z,24.65
2023-03-19T00:52:36.391Z,22.75
2023-03-19T00:55:03.615Z,24.25
2023-03-19T00:57:31.007Z,23.30
2023-03-19T00:59:58.032Z,23.25
2023-03-19T01:02:25.759Z,26.42
2023-03-19T01:04:52.870Z,26.25
2023-03-19T01:07:21.305Z,36.47
2023-03-19T01:09:48.392Z,27.80
2023-03-19T01:12:16.496Z,23.83
2023-03-19T01:14:43.444Z,22.45
2023-03-19T01:17:10.773Z,23.40
2023-03-19T01:19:37.802Z,22.83
2023-03-19T01:22:05.147Z,23.98
2023-03-19T01:24:33.925Z,23.73
2023-03-19T01:27:01.716Z,23.65
2023-03-19T01:29:34.158Z,22.67
2023-03-19T01:32:09.898Z,22.85
2023-03-19T01:35:02.789Z,22.48
2023-03-19T01:37:30.089Z,22.85
2023-03-19T01:39:57.065Z,23.40
2023-03-19T01:42:24.867Z,23.88
2023-03-19T01:44:51.869Z,22.45
2023-03-19T01:47:44.955Z,24.08
2023-03-19T01:50:40.016Z,23.73
2023-03-19T01:53:27.927Z,23.08
2023-03-19T01:56:30.080Z,23.27
2023-03-19T01:59:26.728Z,22.85
2023-03-19T02:02:24.250Z,23.00
2023-03-19T02:04:59.007Z,24.38
2023-03-19T02:07:27.468Z,24.95
2023-03-19T02:10:45.156Z,23.47
2023-03-19T02:13:12.375Z,28.90
2023-03-19T02:15:39.933Z,23.65
2023-03-19T02:18:07.767Z,30.75
2023-03-19T02:21:06.100Z,26.70
2023-03-19T02:23:50.756Z,25.15
2023-03-19T02:26:28.675Z,25.30
2023-03-19T02:29:00.630Z,24.70
2023-03-19T02:31:32.530Z,24.85
2023-03-19T02:34:07.739Z,24.23
2023-03-19T02:36:42.875Z,24.73
2023-03-19T02:39:21.489Z,23.20
2023-03-19T02:41:50.573Z,23.60
2023-03-19T02:44:20.046Z,23.33
2023-03-19T02:46:49.776Z,23.13
2023-03-19T02:49:16.833Z,23.45
2023-03-19T02:51:44.244Z,23.80
2023-03-19T02:54:11.492Z,24.70
2023-03-19T02:56:38.877Z,26.73
2023-03-19T02:59:06.633Z,27.17
2023-03-19T03:01:33.936Z,26.38
2023-03-19T03:04:00.981Z,27.20
2023-03-19T03:06:28.519Z,26.05
2023-03-19T03:08:56.484Z,24.80
2023-03-19T03:11:25.062Z,25.85
2023-03-19T03:13:52.061Z,25.50
2023-03-19T03:16:19.396Z,25.55
2023-03-19T03:18:46.461Z,25.33
2023-03-19T03:21:13.866Z,26.40
2023-03-19T03:23:41.236Z,24.40
2023-03-19T03:26:08.622Z,25.92
2023-03-19T03:28:35.661Z,25.63
2023-03-19T03:31:03.685Z,31.83
2023-03-19T03:33:30.826Z,29.98
2023-03-19T03:35:58.175Z,31.08
2023-03-19T03:38:26.994Z,31.55
2023-03-19T03:40:54.492Z,29.13
2023-03-19T03:43:25.656Z,29.48
2023-03-19T03:45:53.654Z,31.10
2023-03-19T03:48:21.928Z,30.63
2023-03-19T03:50:50.009Z,27.98
2023-03-19T03:53:21.040Z,29.05
2023-03-19T03:55:49.444Z,28.83
2023-03-19T03:58:20.889Z,29.30
2023-03-19T04:00:48.422Z,28.67
2023-03-19T04:03:15.792Z,29.55
2023-03-19T04:05:44.449Z,28.00
2023-03-19T04:08:12.196Z,28.00
2023-03-19T04:10:42.406Z,27.53
2023-03-19T04:13:10.380Z,25.45
2023-03-19T04:15:39.489Z,26.33
2023-03-19T04:18:06.537Z,24.90
2023-03-19T04:20:34.019Z,26.17
2023-03-19T04:23:02.127Z,24.73
2023-03-19T04:25:30.095Z,26.38
2023-03-19T04:27:58.184Z,26.48
2023-03-19T04:30:27.737Z,24.80
2023-03-19T04:32:56.745Z,25.35
2023-03-19T04:35:24.257Z,23.67
2023-03-19T04:37:51.717Z,25.42
2023-03-19T04:42:49.661Z,24.08
2023-03-19T04:45:31.251Z,24.77
2023-03-19T04:47:58.982Z,24.73
2023-03-19T04:50:27.919Z,25.58
2023-03-19T04:52:55.653Z,25.33
2023-03-19T04:55:24.334Z,27.73
2023-03-19T04:58:00.840Z,47.80
2023-03-19T05:00:31.694Z,63.78
2023-03-19T05:02:59.804Z,38.72
2023-03-19T05:05:29.441Z,32.75
2023-03-19T05:07:57.997Z,30.55
2023-03-19T05:10:26.469Z,34.35
2023-03-19T05:12:54.394Z,29.10
2023-03-19T05:15:22.145Z,34.70
2023-03-19T05:17:59.615Z,32.97
2023-03-19T05:20:33.367Z,29.10
2023-03-19T05:23:06.544Z,28.00
2023-03-19T05:25:40.858Z,24.75
2023-03-19T05:28:10.762Z,24.00
2023-03-19T05:30:38.411Z,26.23
2023-03-19T05:33:22.639Z,25.00
2023-03-19T05:35:51.793Z,26.27
2023-03-19T05:38:26.090Z,28.30
2023-03-19T05:41:05.027Z,26.52
2023-03-19T05:43:49.149Z,27.73
2023-03-19T05:46:36.396Z,29.35
2023-03-19T05:49:03.776Z,30.42
2023-03-19T05:51:32.317Z,29.27
2023-03-19T05:53:59.687Z,26.35
2023-03-19T05:56:34.350Z,26.15
2023-03-19T05:59:24.556Z,26.42
2023-03-19T06:02:04.628Z,30.73
2023-03-19T06:04:32.179Z,29.75
2023-03-19T06:07:00.044Z,27.85
2023-03-19T06:09:27.258Z,28.05
2023-03-19T06:11:57.007Z,30.15
2023-03-19T06:14:48.152Z,30.65
2023-03-19T06:17:36.113Z,31.58
2023-03-19T06:20:07.662Z,29.88
2023-03-19T06:22:35.366Z,31.08
2023-03-19T06:25:02.554Z,31.35
2023-03-19T06:27:32.335Z,40.75
2023-03-19T06:30:12.276Z,43.25
2023-03-19T06:32:39.888Z,39.95
2023-03-19T06:35:10.852Z,48.72
2023-03-19T06:37:38.571Z,31.20
2023-03-19T06:40:06.409Z,30.67
2023-03-19T06:42:34.009Z,30.10
2023-03-19T06:45:01.421Z,32.80
2023-03-19T06:47:28.935Z,31.50
2023-03-19T06:49:56.501Z,37.92
2023-03-19T06:52:24.099Z,31.70
2023-03-19T06:54:51.146Z,36.95
2023-03-19T06:57:18.569Z,47.90
2023-03-19T06:59:45.764Z,61.10
2023-03-19T07:02:13.337Z,45.47
2023-03-19T07:04:40.438Z,44.47
2023-03-19T07:07:08.212Z,50.03
2023-03-19T07:09:35.314Z,40.60
2023-03-19T07:12:02.840Z,37.05
2023-03-19T07:14:30.069Z,43.63
2023-03-19T07:16:57.458Z,35.97
2023-03-19T07:19:24.726Z,33.15
2023-03-19T07:21:52.444Z,40.50
2023-03-19T07:24:19.729Z,52.85
2023-03-19T07:26:47.832Z,41.28
2023-03-19T07:29:15.651Z,33.45
2023-03-19T07:31:43.517Z,29.15
2023-03-19T07:34:10.711Z,30.15
2023-03-19T07:36:38.396Z,47.00
2023-03-19T07:39:05.912Z,41.33
2023-03-19T07:41:33.459Z,28.60
2023-03-19T07:44:00.854Z,27.13
2023-03-19T07:46:28.481Z,27.98
2023-03-19T07:48:55.731Z,32.33
2023-03-19T07:51:23.268Z,26.30
2023-03-19T07:53:50.784Z,28.60
2023-03-19T07:56:18.192Z,24.50
2023-03-19T07:58:45.371Z,24.13
2023-03-19T08:01:12.964Z,23.63
2023-03-19T08:03:40.299Z,23.48
2023-03-19T08:06:07.763Z,22.58
2023-03-19T08:08:35.222Z,23.75
2023-03-19T08:11:03.965Z,22.52
2023-03-19T08:13:31.744Z,22.23
2023-03-19T08:15:59.720Z,25.35
2023-03-19T08:18:27.460Z,22.63
2023-03-19T08:20:54.818Z,22.52
2023-03-19T08:23:22.119Z,21.55
2023-03-19T08:25:51.968Z,22.33
2023-03-19T08:28:20.410Z,29.33
2023-03-19T08:30:47.818Z,26.73
2023-03-19T08:33:15.882Z,24.27
2023-03-19T08:35:44.273Z,29.17
2023-03-19T08:38:11.846Z,21.08
2023-03-19T08:40:39.871Z,23.02
2023-03-19T08:43:07.477Z,19.63
2023-03-19T08:45:35.129Z,13.35
2023-03-19T08:48:02.472Z,14.13
2023-03-19T08:50:30.148Z,14.85
2023-03-19T08:52:57.675Z,15.52
2023-03-19T08:55:25.155Z,15.10
2023-03-19T08:57:52.372Z,16.65
2023-03-19T09:00:20.184Z,15.95
2023-03-19T09:02:47.220Z,46.22
2023-03-19T09:05:14.763Z,21.95
2023-03-19T09:07:41.922Z,17.60
2023-03-19T09:10:09.853Z,22.10
2023-03-19T09:12:37.129Z,17.88
2023-03-19T09:15:05.361Z,17.52
2023-03-19T09:17:32.523Z,17.77
2023-03-19T09:20:00.064Z,20.35
2023-03-19T09:22:27.400Z,21.05
2023-03-19T09:24:54.999Z,19.73
2023-03-19T09:27:22.189Z,23.42
2023-03-19T09:29:49.794Z,24.23
2023-03-19T09:32:17.336Z,48.28
2023-03-19T09:34:44.720Z,27.77
2023-03-19T09:37:11.990Z,25.10
2023-03-19T09:39:39.676Z,23.45
2023-03-19T09:42:45.461Z,20.00
2023-03-19T09:45:16.611Z,30.33
2023-03-19T09:47:46.631Z,20.05
2023-03-19T09:50:20.341Z,19.27
2023-03-19T09:52:49.616Z,20.83
2023-03-19T09:55:36.935Z,20.63
2023-03-19T09:58:12.958Z,22.00
2023-03-19T10:00:42.646Z,19.23
2023-03-19T10:03:28.060Z,18.38
2023-03-19T10:06:32.555Z,16.30
2023-03-19T10:09:36.561Z,18.38
2023-03-19T10:12:45.272Z,18.63
2023-03-19T10:15:21.429Z,19.13
2023-03-19T10:18:11.139Z,18.48
2023-03-19T10:20:47.456Z,19.27
2023-03-19T10:23:40.512Z,18.05
2023-03-19T10:26:16.896Z,23.27
2023-03-19T10:28:54.582Z,19.88
2023-03-19T10:31:37.913Z,17.70
2023-03-19T10:34:21.119Z,20.95
2023-03-19T10:36:48.663Z,19.60
2023-03-19T10:39:19.049Z,22.23
2023-03-19T10:42:01.631Z,22.80
2023-03-19T10:44:34.616Z,17.45
2023-03-19T10:47:20.439Z,23.05
2023-03-19T10:49:50.921Z,15.25
2023-03-19T10:52:36.922Z,20.05
2023-03-19T10:55:15.394Z,19.88
2023-03-19T10:57:44.839Z,19.67
2023-03-19T11:00:22.661Z,17.73
2023-03-19T11:02:53.729Z,15.45
2023-03-19T11:05:23.997Z,17.00
2023-03-19T11:10:25.775Z,12.77
2023-03-19T11:12:57.729Z,14.32
2023-03-19T11:15:36.447Z,15.05
2023-03-19T11:18:27.448Z,13.75
2023-03-19T11:21:07.503Z,13.68
2023-03-19T11:26:07.524Z,12.80
2023-03-19T11:28:37.510Z,12.00
2023-03-19T11:31:27.658Z,14.38
2023-03-19T11:36:31.136Z,13.25
2023-03-19T11:39:37.480Z,14.88
2023-03-19T11:42:20.182Z,31.90
2023-03-19T11:45:24.773Z,25.48
2023-03-19T11:48:04.267Z,16.75
2023-03-19T11:50:46.576Z,13.40
2023-03-19T11:53:24.823Z,16.15
2023-03-19T11:56:02.394Z,29.92
2023-03-19T11:58:58.803Z,18.25
2023-03-19T12:01:47.422Z,15.32
2023-03-19T12:04:17.500Z,12.52
2023-03-19T12:07:45.765Z,11.80
2023-03-19T12:10:42.717Z,11.90
2023-03-19T12:13:34.336Z,12.23
2023-03-19T12:16:26.014Z,11.25
2023-03-19T12:19:02.576Z,10.35
2023-03-19T12:21:48.817Z,11.20
2023-03-19T12:24:38.224Z,11.43
2023-03-19T12:27:35.214Z,10.85
2023-03-19T12:30:37.243Z,9.93
2023-03-19T12:33:36.817Z,9.73
2023-03-19T12:36:09.843Z,9.68
2023-03-19T12:38:48.384Z,9.65
2023-03-19T12:41:24.980Z,9.95
2023-03-19T12:44:13.781Z,9.07
2023-03-19T12:46:47.144Z,9.88
2023-03-19T12:49:14.534Z,10.55
2023-03-19T12:51:46.663Z,10.77
2023-03-19T12:54:23.837Z,10.55
2023-03-19T12:57:29.492Z,10.45
2023-03-19T13:00:06.887Z,11.35
2023-03-19T13:02:41.628Z,15.10
2023-03-19T13:05:23.032Z,11.20
2023-03-19T13:07:57.933Z,11.95
2023-03-19T13:10:26.704Z,10.00
2023-03-19T13:12:54.800Z,11.43
2023-03-19T13:15:40.344Z,10.95
2023-03-19T13:18:51.426Z,10.35
2023-03-19T13:21:23.634Z,11.30
2023-03-19T13:24:05.719Z,10.98
2023-03-19T13:26:34.821Z,15.52
2023-03-19T13:29:09.376Z,11.20
2023-03-19T13:31:38.425Z,11.82
2023-03-19T13:34:20.352Z,10.93
2023-03-19T13:37:18.422Z,10.60
2023-03-19T13:39:48.452Z,11.45
2023-03-19T13:42:24.281Z,11.88
2023-03-19T13:44:57.252Z,13.32
2023-03-19T13:47:32.554Z,117.30
2023-03-19T13:50:11.204Z,12.13
2023-03-19T13:52:50.930Z,10.63
2023-03-19T13:55:24.365Z,11.02
2023-03-19T13:58:12.457Z,11.15
2023-03-19T14:00:45.552Z,11.30
2023-03-19T14:03:33.888Z,11.18
2023-03-19T14:06:01.948Z,10.93
2023-03-19T14:08:51.883Z,11.75
2023-03-19T14:11:29.859Z,11.18
2023-03-19T14:14:03.479Z,11.20
2023-03-19T14:16:35.405Z,11.85
2023-03-19T14:19:11.002Z,12.35
2023-03-19T14:21:47.211Z,10.55
2023-03-19T14:24:54.468Z,10.32
2023-03-19T14:27:21.620Z,10.60
2023-03-19T14:29:50.522Z,12.43
2023-03-19T14:32:23.121Z,11.02
2023-03-19T14:34:50.887Z,10.20
2023-03-19T14:37:25.163Z,10.68
2023-03-19T14:40:08.829Z,10.45
2023-03-19T14:43:00.952Z,10.88
2023-03-19T14:45:47.156Z,9.95
2023-03-19T14:48:14.227Z,10.00
2023-03-19T14:50:51.351Z,9.43
2023-03-19T14:53:28.873Z,11.10
2023-03-19T14:55:56.554Z,10.88
2023-03-19T14:58:23.641Z,12.25
2023-03-19T15:00:54.620Z,13.63
2023-03-19T15:03:37.326Z,13.38
2023-03-19T15:06:07.853Z,12.75
2023-03-19T15:08:38.220Z,13.88
2023-03-19T15:11:29.398Z,15.98
2023-03-19T15:14:05.749Z,16.05
2023-03-19T15:16:57.232Z,17.33
2023-03-19T15:19:32.194Z,17.40
2023-03-19T15:22:12.299Z,18.98
2023-03-19T15:24:39.650Z,18.58
2023-03-19T15:27:22.942Z,17.77
2023-03-19T15:29:51.986Z,18.90
2023-03-19T15:32:52.081Z,18.85
2023-03-19T15:35:24.840Z,19.92
2023-03-19T15:37:56.903Z,19.85
2023-03-19T15:40:30.487Z,20.73
2023-03-19T15:43:02.909Z,20.23
2023-03-19T15:45:34.005Z,20.02
2023-03-19T15:48:21.949Z,19.42
2023-03-19T15:50:55.715Z,20.83
2023-03-19T15:53:28.758Z,20.63
2023-03-19T15:55:56.620Z,21.80
2023-03-19T15:58:28.096Z,22.20
2023-03-19T16:00:56.635Z,22.30
2023-03-19T16:03:40.589Z,22.77
2023-03-19T16:06:19.724Z,23.65
2023-03-19T16:08:55.196Z,23.35
2023-03-19T16:11:58.170Z,24.58
2023-03-19T16:14:43.745Z,30.00
2023-03-19T16:17:20.474Z,30.38
2023-03-19T16:19:53.363Z,33.10
2023-03-19T16:22:28.964Z,30.48
2023-03-19T16:24:57.635Z,30.15
2023-03-19T16:27:52.535Z,30.30
2023-03-19T16:30:27.384Z,29.63
2023-03-19T16:33:06.497Z,29.60
2023-03-19T16:35:37.053Z,38.85
2023-03-19T16:38:23.046Z,74.07
2023-03-19T16:41:18.859Z,54.65
2023-03-19T16:43:52.615Z,38.53
2023-03-19T16:46:21.516Z,36.85
2023-03-19T16:48:48.873Z,33.97
2023-03-19T16:51:20.203Z,33.80
2023-03-19T16:53:49.159Z,38.30
2023-03-19T16:56:18.809Z,51.60
2023-03-19T16:58:46.891Z,97.07
2023-03-19T17:01:21.099Z,66.72
2023-03-19T17:03:50.302Z,68.72
2023-03-19T17:06:19.360Z,61.72
2023-03-19T17:08:47.706Z,68.60
2023-03-19T17:11:28.663Z,71.55
2023-03-19T17:13:59.117Z,45.38
2023-03-19T17:16:28.324Z,39.30
2023-03-19T17:18:57.172Z,57.78
2023-03-19T17:21:34.748Z,50.22
2023-03-19T17:24:23.490Z,63.90
2023-03-19T17:26:52.257Z,57.50
2023-03-19T17:29:23.123Z,49.25
2023-03-19T17:31:51.846Z,42.90
2023-03-19T17:34:44.623Z,33.15
2023-03-19T17:37:14.870Z,29.88
2023-03-19T17:39:43.484Z,34.08
2023-03-19T17:42:24.158Z,43.28
2023-03-19T17:44:52.407Z,38.83
2023-03-19T17:47:20.597Z,38.45
2023-03-19T17:49:48.232Z,48.65
2023-03-19T17:52:18.110Z,51.92
2023-03-19T17:54:46.003Z,53.85
2023-03-19T17:57:15.598Z,70.90
2023-03-19T17:59:43.045Z,55.43
2023-03-19T18:02:32.684Z,45.95
2023-03-19T18:05:00.345Z,46.42
2023-03-19T18:07:27.934Z,50.55
2023-03-19T18:09:55.383Z,64.45
2023-03-19T18:12:22.783Z,114.57
2023-03-19T18:14:50.046Z,127.65
2023-03-19T18:17:18.849Z,55.67
2023-03-19T18:19:47.914Z,56.30
2023-03-19T18:22:18.101Z,48.78
2023-03-19T18:24:46.286Z,87.05
2023-03-19T18:27:14.933Z,115.68
2023-03-19T18:29:42.600Z,95.07
2023-03-19T18:32:18.985Z,60.97
2023-03-19T18:34:46.438Z,49.10
2023-03-19T18:37:18.360Z,66.45
2023-03-19T18:39:46.281Z,71.55
2023-03-19T18:42:14.662Z,55.38
2023-03-19T18:44:42.982Z,46.30
2023-03-19T18:47:14.877Z,47.22
2023-03-19T18:49:43.399Z,39.95
2023-03-19T18:52:15.047Z,43.27
2023-03-19T18:54:44.171Z,46.75
2023-03-19T18:57:14.358Z,44.75
2023-03-19T18:59:42.316Z,39.05
2023-03-19T19:02:33.785Z,34.17
2023-03-19T19:05:01.730Z,47.17
2023-03-19T19:07:29.744Z,58.90
2023-03-19T19:09:57.164Z,47.05
2023-03-19T19:12:26.620Z,75.85
2023-03-19T19:14:53.982Z,46.50
2023-03-19T19:17:29.311Z,35.33
2023-03-19T19:19:56.958Z,38.60
2023-03-19T19:22:24.570Z,35.70
2023-03-19T19:24:52.000Z,33.38
2023-03-19T19:27:28.550Z,31.90
2023-03-19T19:29:56.128Z,30.08
2023-03-19T19:32:26.684Z,32.55
2023-03-19T19:34:54.365Z,33.85
2023-03-19T19:37:23.424Z,32.70
2023-03-19T19:39:51.304Z,43.22
2023-03-19T19:42:22.225Z,31.33
2023-03-19T19:44:58.753Z,29.98
2023-03-19T19:47:27.303Z,28.63
2023-03-19T19:49:54.538Z,28.35
2023-03-19T19:52:22.760Z,28.23
2023-03-19T19:54:52.119Z,29.58
2023-03-19T19:57:24.927Z,27.75
2023-03-19T19:59:54.083Z,30.52
2023-03-19T20:02:28.806Z,28.92
2023-03-19T20:04:59.158Z,28.30
2023-03-19T20:07:27.410Z,29.75
2023-03-19T20:09:54.773Z,28.70
2023-03-19T20:12:26.349Z,30.80
2023-03-19T20:14:54.626Z,30.77
2023-03-19T20:17:23.062Z,29.55
2023-03-19T20:19:51.721Z,29.77
2023-03-19T20:22:19.624Z,30.25
2023-03-19T20:24:49.530Z,38.15
2023-03-19T20:27:26.525Z,41.72
2023-03-19T20:29:54.774Z,19.58
2023-03-19T20:32:35.314Z,16.33
2023-03-19T20:35:04.379Z,13.38
2023-03-19T20:37:32.659Z,14.70
2023-03-19T20:40:00.594Z,15.60
2023-03-19T20:42:31.629Z,20.30
2023-03-19T20:45:00.036Z,20.23
2023-03-19T20:47:29.328Z,20.02
2023-03-19T20:49:57.969Z,20.88
2023-03-19T20:52:26.254Z,21.50
2023-03-19T20:54:54.363Z,26.13
2023-03-19T20:57:29.492Z,25.75
2023-03-19T20:59:59.678Z,20.42
2023-03-19T21:02:28.521Z,19.70
2023-03-19T21:04:56.983Z,20.23
2023-03-19T21:07:28.752Z,19.88
2023-03-19T21:09:58.277Z,21.15
2023-03-19T21:12:29.291Z,24.35
2023-03-19T21:14:58.216Z,22.70
2023-03-19T21:17:30.728Z,29.05
2023-03-19T21:19:58.617Z,25.17
2023-03-19T21:22:28.966Z,25.98
2023-03-19T21:25:07.911Z,24.05
2023-03-19T21:27:37.057Z,22.73
2023-03-19T21:30:08.382Z,34.88
2023-03-19T21:32:36.176Z,22.67
2023-03-19T21:35:03.579Z,23.33
2023-03-19T21:37:31.885Z,28.67
2023-03-19T21:39:59.518Z,22.23
2023-03-19T21:42:28.673Z,22.02
2023-03-19T21:44:59.568Z,22.88
2023-03-19T21:47:27.544Z,21.70
2023-03-19T21:49:55.430Z,21.65
2023-03-19T21:52:23.458Z,22.02
2023-03-19T21:54:51.253Z,20.83
2023-03-19T21:57:19.408Z,22.45
2023-03-19T21:59:47.126Z,21.17
2023-03-19T22:02:27.245Z,20.30
2023-03-19T22:04:54.636Z,19.63
2023-03-19T22:07:22.649Z,20.38
2023-03-19T22:09:50.019Z,20.05
2023-03-19T22:12:26.115Z,21.67
2023-03-19T22:14:54.104Z,20.48
2023-03-19T22:17:25.693Z,22.60
2023-03-19T22:19:53.242Z,20.92
2023-03-19T22:22:20.918Z,22.92
2023-03-19T22:24:48.413Z,24.67
2023-03-19T22:27:17.654Z,28.38
2023-03-19T22:29:46.343Z,34.85
2023-03-19T22:32:17.700Z,41.30
2023-03-19T22:34:45.469Z,45.45
2023-03-19T22:37:23.910Z,53.88
2023-03-19T22:39:51.444Z,40.90
2023-03-19T22:42:19.690Z,41.50
2023-03-19T22:44:49.093Z,37.75
2023-03-19T22:47:21.736Z,31.35
2023-03-19T22:49:49.942Z,30.75
2023-03-19T22:52:17.905Z,29.55
2023-03-19T22:54:45.362Z,30.33
2023-03-19T22:57:17.549Z,34.63
2023-03-19T22:59:45.099Z,33.92
2023-03-19T23:02:14.301Z,50.45
2023-03-19T23:04:42.279Z,67.70
2023-03-19T23:07:14.164Z,72.88
2023-03-19T23:09:44.852Z,108.30
2023-03-19T23:12:12.277Z,104.28
2023-03-19T23:14:40.305Z,105.38
2023-03-19T23:17:17.454Z,50.28
2023-03-19T23:19:44.750Z,61.60
2023-03-19T23:22:16.071Z,71.75
2023-03-19T23:24:44.666Z,43.40
2023-03-19T23:27:24.267Z,44.30
2023-03-19T23:29:52.464Z,46.10
2023-03-19T23:32:20.691Z,62.13
2023-03-19T23:34:58.114Z,75.07
2023-03-19T23:37:29.082Z,57.65
2023-03-19T23:39:57.736Z,52.35
2023-03-19T23:42:29.650Z,50.40
2023-03-19T23:45:01.339Z,48.53
2023-03-19T23:47:29.667Z,48.97
2023-03-19T23:49:57.265Z,47.67
2023-03-19T23:52:24.657Z,47.25
2023-03-19T23:54:52.535Z,57.67
2023-03-19T23:57:22.375Z,52.70
2023-03-19T23:59:58.326Z,56.45
